sensor_id;sensor_type;location;lat;lon;timestamp;pressure;altitude;pressure_sealevel;temperature;humidity
24666;BME280;29726;53.532;-1.478;2023-02-23T00:02:33;100649.25;;;12.27;100.00
24666;BME280;29726;53.532;-1.478;2023-02-23T00:05:17;100656.88;;;12.26;100.00
24666;BME280;29726;53.532;-1.478;2023-02-23T00:08:02;100653.00;;;12.24;100.00
24666;BME280;29726;53.532;-1.478;2023-02-23T00:10:47;100661.72;;;12.26;100.00
24666;BME280;29726;53.532;-1.478;2023-02-23T00:13:35;100671.16;;;12.28;100.00
24666;BME280;29726;53.532;-1.478;2023-02-23T00:16:22;100670.28;;;12.22;100.00
24666;BME280;29726;53.532;-1.478;2023-02-23T00:19:06;100670.28;;;12.22;100.00
24666;BME280;29726;53.532;-1.478;2023-02-23T00:21:51;100678.97;;;12.24;100.00
24666;BME280;29726;53.532;-1.478;2023-02-23T00:24:36;100663.28;;;12.18;100.00
24666;BME280;29726;53.532;-1.478;2023-02-23T00:27:21;100672.78;;;12.20;100.00
24666;BME280;29726;53.532;-1.478;2023-02-23T00:30:06;100665.78;;;12.16;100.00
24666;BME280;29726;53.532;-1.478;2023-02-23T00:32:50;100679.31;;;12.17;100.00
24666;BME280;29726;53.532;-1.478;2023-02-23T00:35:35;100685.69;;;12.18;100.00
24666;BME280;29726;53.532;-1.478;2023-02-23T00:38:19;100681.34;;;12.17;100.00
24666;BME280;29726;53.532;-1.478;2023-02-23T00:41:07;100637.94;;;11.89;100.00
24666;BME280;29726;53.532;-1.478;2023-02-23T00:43:51;100690.50;;;12.17;100.00
24666;BME280;29726;53.532;-1.478;2023-02-23T00:46:37;100688.19;;;12.16;100.00
24666;BME280;29726;53.532;-1.478;2023-02-23T00:49:21;100687.88;;;12.14;100.00
24666;BME280;29726;53.532;-1.478;2023-02-23T00:52:06;100683.72;;;12.09;100.00
24666;BME280;29726;53.532;-1.478;2023-02-23T00:54:50;100686.81;;;12.11;100.00
24666;BME280;29726;53.532;-1.478;2023-02-23T00:57:35;100677.19;;;12.03;100.00
24666;BME280;29726;53.532;-1.478;2023-02-23T01:00:19;100690.38;;;12.12;100.00
24666;BME280;29726;53.532;-1.478;2023-02-23T01:03:03;100690.38;;;12.12;100.00
24666;BME280;29726;53.532;-1.478;2023-02-23T01:05:47;100683.88;;;12.06;100.00
24666;BME280;29726;53.532;-1.478;2023-02-23T01:08:37;100694.91;;;12.09;100.00
24666;BME280;29726;53.532;-1.478;2023-02-23T01:11:27;100652.75;;;11.80;100.00
24666;BME280;29726;53.532;-1.478;2023-02-23T01:14:11;100690.88;;;12.01;100.00
24666;BME280;29726;53.532;-1.478;2023-02-23T01:16:54;100690.25;;;12.06;100.00
24666;BME280;29726;53.532;-1.478;2023-02-23T01:19:39;100701.44;;;12.06;100.00
24666;BME280;29726;53.532;-1.478;2023-02-23T01:22:23;100693.81;;;12.07;100.00
24666;BME280;29726;53.532;-1.478;2023-02-23T01:25:07;100693.69;;;12.01;100.00
24666;BME280;29726;53.532;-1.478;2023-02-23T01:27:51;100694.00;;;12.03;100.00
24666;BME280;29726;53.532;-1.478;2023-02-23T01:30:35;100689.03;;;11.98;100.00
24666;BME280;29726;53.532;-1.478;2023-02-23T01:33:20;100707.03;;;12.06;100.00
24666;BME280;29726;53.532;-1.478;2023-02-23T01:36:04;100700.84;;;12.02;100.00
24666;BME280;29726;53.532;-1.478;2023-02-23T01:38:48;100698.69;;;11.97;100.00
24666;BME280;29726;53.532;-1.478;2023-02-23T01:41:34;100715.91;;;12.05;100.00
24666;BME280;29726;53.532;-1.478;2023-02-23T01:47:06;100716.25;;;11.98;100.00
24666;BME280;29726;53.532;-1.478;2023-02-23T01:49:51;100704.28;;;11.97;100.00
24666;BME280;29726;53.532;-1.478;2023-02-23T01:52:35;100688.34;;;11.80;100.00
24666;BME280;29726;53.532;-1.478;2023-02-23T01:55:21;100725.25;;;12.02;100.00
24666;BME280;29726;53.532;-1.478;2023-02-23T01:58:14;100714.22;;;11.98;100.00
24666;BME280;29726;53.532;-1.478;2023-02-23T02:01:00;100724.34;;;11.96;100.00
24666;BME280;29726;53.532;-1.478;2023-02-23T02:03:56;100740.94;;;11.99;100.00
24666;BME280;29726;53.532;-1.478;2023-02-23T02:06:43;100738.94;;;12.00;100.00
24666;BME280;29726;53.532;-1.478;2023-02-23T02:09:28;100720.31;;;11.88;100.00
24666;BME280;29726;53.532;-1.478;2023-02-23T02:12:13;100733.97;;;11.95;100.00
24666;BME280;29726;53.532;-1.478;2023-02-23T02:14:58;100740.81;;;11.94;100.00
24666;BME280;29726;53.532;-1.478;2023-02-23T02:43:05;100765.38;;;11.90;100.00
24666;BME280;29726;53.532;-1.478;2023-02-23T02:46:20;100763.53;;;11.87;100.00
24666;BME280;29726;53.532;-1.478;2023-02-23T02:49:04;100772.22;;;11.89;100.00
24666;BME280;29726;53.532;-1.478;2023-02-23T02:52:08;100767.41;;;11.89;100.00
24666;BME280;29726;53.532;-1.478;2023-02-23T02:55:03;100788.69;;;11.87;100.00
24666;BME280;29726;53.532;-1.478;2023-02-23T02:57:55;100778.91;;;11.82;100.00
24666;BME280;29726;53.532;-1.478;2023-02-23T03:00:45;100772.72;;;11.87;100.00
24666;BME280;29726;53.532;-1.478;2023-02-23T03:03:48;100762.47;;;11.75;100.00
24666;BME280;29726;53.532;-1.478;2023-02-23T03:06:57;100780.94;;;11.82;100.00
24666;BME280;29726;53.532;-1.478;2023-02-23T03:10:13;100776.28;;;11.79;100.00
24666;BME280;29726;53.532;-1.478;2023-02-23T03:19:53;100792.16;;;11.73;100.00
24666;BME280;29726;53.532;-1.478;2023-02-23T03:23:16;100800.22;;;11.80;100.00
24666;BME280;29726;53.532;-1.478;2023-02-23T03:26:38;100808.31;;;11.78;100.00
24666;BME280;29726;53.532;-1.478;2023-02-23T03:30:05;100807.53;;;11.77;100.00
24666;BME280;29726;53.532;-1.478;2023-02-23T03:33:19;100796.50;;;11.65;100.00
24666;BME280;29726;53.532;-1.478;2023-02-23T03:36:30;100810.19;;;11.72;100.00
24666;BME280;29726;53.532;-1.478;2023-02-23T03:39:40;100824.94;;;11.72;100.00
24666;BME280;29726;53.532;-1.478;2023-02-23T03:42:47;100828.66;;;11.69;100.00
24666;BME280;29726;53.532;-1.478;2023-02-23T03:45:54;100815.31;;;11.64;100.00
24666;BME280;29726;53.532;-1.478;2023-02-23T03:49:01;100829.59;;;11.66;100.00
24666;BME280;29726;53.532;-1.478;2023-02-23T03:52:15;100828.19;;;11.62;100.00
24666;BME280;29726;53.532;-1.478;2023-02-23T03:55:23;100846.53;;;11.63;100.00
24666;BME280;29726;53.532;-1.478;2023-02-23T03:58:51;100849.94;;;11.58;100.00
24666;BME280;29726;53.532;-1.478;2023-02-23T04:01:56;100848.72;;;11.59;100.00
24666;BME280;29726;53.532;-1.478;2023-02-23T04:05:05;100851.66;;;11.56;100.00
24666;BME280;29726;53.532;-1.478;2023-02-23T04:08:13;100856.72;;;11.48;100.00
24666;BME280;29726;53.532;-1.478;2023-02-23T04:11:26;100864.53;;;11.53;100.00
24666;BME280;29726;53.532;-1.478;2023-02-23T04:14:38;100871.34;;;11.43;100.00
24666;BME280;29726;53.532;-1.478;2023-02-23T04:17:26;100873.19;;;11.46;100.00
24666;BME280;29726;53.532;-1.478;2023-02-23T04:20:12;100875.53;;;11.48;100.00
24666;BME280;29726;53.532;-1.478;2023-02-23T04:22:57;100878.47;;;11.44;100.00
24666;BME280;29726;53.532;-1.478;2023-02-23T04:25:41;100886.88;;;11.44;100.00
24666;BME280;29726;53.532;-1.478;2023-02-23T04:28:26;100887.34;;;11.43;100.00
24666;BME280;29726;53.532;-1.478;2023-02-23T04:31:10;100884.25;;;11.41;100.00
24666;BME280;29726;53.532;-1.478;2023-02-23T04:33:54;100887.97;;;11.38;100.00
24666;BME280;29726;53.532;-1.478;2023-02-23T04:36:38;100895.13;;;11.39;100.00
24666;BME280;29726;53.532;-1.478;2023-02-23T04:39:23;100902.69;;;11.38;100.00
24666;BME280;29726;53.532;-1.478;2023-02-23T04:42:07;100905.94;;;11.37;100.00
24666;BME280;29726;53.532;-1.478;2023-02-23T04:44:52;100908.75;;;11.37;100.00
24666;BME280;29726;53.532;-1.478;2023-02-23T04:47:36;100917.28;;;11.33;100.00
24666;BME280;29726;53.532;-1.478;2023-02-23T04:50:20;100908.13;;;11.24;100.00
24666;BME280;29726;53.532;-1.478;2023-02-23T04:53:04;100915.88;;;11.29;100.00
24666;BME280;29726;53.532;-1.478;2023-02-23T04:55:48;100915.72;;;11.23;100.00
24666;BME280;29726;53.532;-1.478;2023-02-23T04:58:32;100919.59;;;11.26;100.00
24666;BME280;29726;53.532;-1.478;2023-02-23T05:01:16;100931.56;;;11.26;100.00
24666;BME280;29726;53.532;-1.478;2023-02-23T05:04:00;100921.78;;;11.22;100.00
24666;BME280;29726;53.532;-1.478;2023-02-23T05:06:44;100934.19;;;11.21;100.00
24666;BME280;29726;53.532;-1.478;2023-02-23T05:09:29;100943.34;;;11.21;100.00
24666;BME280;29726;53.532;-1.478;2023-02-23T05:12:13;100935.13;;;11.18;100.00
24666;BME280;29726;53.532;-1.478;2023-02-23T05:14:57;100927.59;;;11.06;100.00
24666;BME280;29726;53.532;-1.478;2023-02-23T05:17:42;100947.22;;;11.15;100.00
24666;BME280;29726;53.532;-1.478;2023-02-23T05:20:26;100944.69;;;11.08;100.00
24666;BME280;29726;53.532;-1.478;2023-02-23T05:23:10;100942.81;;;11.05;100.00
24666;BME280;29726;53.532;-1.478;2023-02-23T05:25:59;100963.16;;;11.05;100.00
24666;BME280;29726;53.532;-1.478;2023-02-23T05:28:44;100958.16;;;11.00;100.00
24666;BME280;29726;53.532;-1.478;2023-02-23T05:31:29;100957.53;;;10.96;100.00
24666;BME280;29726;53.532;-1.478;2023-02-23T05:34:14;100971.22;;;11.03;100.00
24666;BME280;29726;53.532;-1.478;2023-02-23T05:36:59;100970.56;;;10.99;100.00
24666;BME280;29726;53.532;-1.478;2023-02-23T05:39:43;100974.88;;;10.91;100.00
24666;BME280;29726;53.532;-1.478;2023-02-23T05:42:27;100979.09;;;10.96;100.00
24666;BME280;29726;53.532;-1.478;2023-02-23T05:45:11;100983.91;;;10.95;100.00
24666;BME280;29726;53.532;-1.478;2023-02-23T05:47:54;100979.25;;;10.92;100.00
24666;BME280;29726;53.532;-1.478;2023-02-23T05:50:39;100987.16;;;10.94;100.00
24666;BME280;29726;53.532;-1.478;2023-02-23T05:53:23;100976.25;;;10.87;100.00
24666;BME280;29726;53.532;-1.478;2023-02-23T05:56:11;100978.28;;;10.86;100.00
24666;BME280;29726;53.532;-1.478;2023-02-23T05:58:57;100984.50;;;10.90;100.00
24666;BME280;29726;53.532;-1.478;2023-02-23T06:01:41;100983.22;;;10.82;100.00
24666;BME280;29726;53.532;-1.478;2023-02-23T06:04:26;100993.47;;;10.85;100.00
24666;BME280;29726;53.532;-1.478;2023-02-23T06:07:09;100991.94;;;10.84;100.00
24666;BME280;29726;53.532;-1.478;2023-02-23T06:09:53;100995.44;;;10.76;100.00
24666;BME280;29726;53.532;-1.478;2023-02-23T06:12:37;100998.44;;;10.81;100.00
24666;BME280;29726;53.532;-1.478;2023-02-23T06:15:21;100995.44;;;10.76;100.00
24666;BME280;29726;53.532;-1.478;2023-02-23T06:18:06;100988.91;;;10.70;100.00
24666;BME280;29726;53.532;-1.478;2023-02-23T06:20:51;101007.22;;;10.71;100.00
24666;BME280;29726;53.532;-1.478;2023-02-23T06:23:35;101002.88;;;10.70;100.00
24666;BME280;29726;53.532;-1.478;2023-02-23T06:26:21;101022.72;;;10.72;100.00
24666;BME280;29726;53.532;-1.478;2023-02-23T06:29:04;101013.50;;;10.62;100.00
24666;BME280;29726;53.532;-1.478;2023-02-23T06:31:48;101010.91;;;10.68;100.00
24666;BME280;29726;53.532;-1.478;2023-02-23T06:34:32;101020.50;;;10.67;100.00
24666;BME280;29726;53.532;-1.478;2023-02-23T06:37:17;101019.09;;;10.62;100.00
24666;BME280;29726;53.532;-1.478;2023-02-23T06:40:02;101026.22;;;10.63;100.00
24666;BME280;29726;53.532;-1.478;2023-02-23T06:42:47;100981.84;;;10.35;100.00
24666;BME280;29726;53.532;-1.478;2023-02-23T06:45:32;101016.22;;;10.53;100.00
24666;BME280;29726;53.532;-1.478;2023-02-23T06:48:16;101033.19;;;10.59;100.00
24666;BME280;29726;53.532;-1.478;2023-02-23T06:51:00;101032.84;;;10.57;100.00
24666;BME280;29726;53.532;-1.478;2023-02-23T06:53:44;101032.22;;;10.53;100.00
24666;BME280;29726;53.532;-1.478;2023-02-23T06:56:28;101032.66;;;10.51;100.00
24666;BME280;29726;53.532;-1.478;2023-02-23T06:59:12;101040.59;;;10.53;100.00
24666;BME280;29726;53.532;-1.478;2023-02-23T07:01:56;101054.06;;;10.54;100.00
24666;BME280;29726;53.532;-1.478;2023-02-23T07:04:40;101057.91;;;10.48;100.00
24666;BME280;29726;53.532;-1.478;2023-02-23T07:07:24;101056.22;;;10.50;100.00
24666;BME280;29726;53.532;-1.478;2023-02-23T07:10:08;101012.84;;;10.15;100.00
24666;BME280;29726;53.532;-1.478;2023-02-23T07:12:52;101066.63;;;10.50;100.00
24666;BME280;29726;53.532;-1.478;2023-02-23T07:15:38;101057.38;;;10.40;100.00
24666;BME280;29726;53.532;-1.478;2023-02-23T07:18:22;101044.94;;;10.20;100.00
24666;BME280;29726;53.532;-1.478;2023-02-23T07:21:06;101082.72;;;10.46;100.00
24666;BME280;29726;53.532;-1.478;2023-02-23T07:23:51;101061.31;;;10.30;100.00
24666;BME280;29726;53.532;-1.478;2023-02-23T07:26:35;101071.47;;;10.37;100.00
24666;BME280;29726;53.532;-1.478;2023-02-23T07:29:18;101083.59;;;10.43;100.00
24666;BME280;29726;53.532;-1.478;2023-02-23T07:32:03;101075.75;;;10.29;100.00
24666;BME280;29726;53.532;-1.478;2023-02-23T07:34:47;101095.66;;;10.40;100.00
24666;BME280;29726;53.532;-1.478;2023-02-23T07:37:31;101094.25;;;10.35;100.00
24666;BME280;29726;53.532;-1.478;2023-02-23T07:40:15;101090.28;;;10.24;100.00
24666;BME280;29726;53.532;-1.478;2023-02-23T07:43:00;101099.84;;;10.35;100.00
24666;BME280;29726;53.532;-1.478;2023-02-23T07:45:43;101102.16;;;10.37;100.00
24666;BME280;29726;53.532;-1.478;2023-02-23T07:48:27;101081.75;;;10.27;100.00
24666;BME280;29726;53.532;-1.478;2023-02-23T07:51:13;101083.31;;;10.28;100.00
24666;BME280;29726;53.532;-1.478;2023-02-23T07:54:03;101101.50;;;10.33;100.00
24666;BME280;29726;53.532;-1.478;2023-02-23T07:56:47;101104.41;;;10.29;100.00
24666;BME280;29726;53.532;-1.478;2023-02-23T07:59:31;101115.25;;;10.27;100.00
24666;BME280;29726;53.532;-1.478;2023-02-23T08:02:16;101114.47;;;10.27;100.00
24666;BME280;29726;53.532;-1.478;2023-02-23T08:05:00;101124.72;;;10.30;100.00
24666;BME280;29726;53.532;-1.478;2023-02-23T08:07:44;101110.25;;;10.22;100.00
24666;BME280;29726;53.532;-1.478;2023-02-23T08:10:28;101113.25;;;10.28;100.00
24666;BME280;29726;53.532;-1.478;2023-02-23T08:13:13;101102.66;;;10.23;100.00
24666;BME280;29726;53.532;-1.478;2023-02-23T08:15:58;101104.88;;;10.28;100.00
24666;BME280;29726;53.532;-1.478;2023-02-23T08:18:43;101106.44;;;10.29;100.00
24666;BME280;29726;53.532;-1.478;2023-02-23T08:21:27;101104.06;;;10.27;100.00
24666;BME280;29726;53.532;-1.478;2023-02-23T08:24:15;101099.72;;;10.26;100.00
24666;BME280;29726;53.532;-1.478;2023-02-23T08:27:01;101089.38;;;10.27;100.00
24666;BME280;29726;53.532;-1.478;2023-02-23T08:29:46;101088.19;;;10.37;100.00
24666;BME280;29726;53.532;-1.478;2023-02-23T08:32:34;101082.50;;;10.40;100.00
24666;BME280;29726;53.532;-1.478;2023-02-23T08:35:18;101072.91;;;10.41;100.00
24666;BME280;29726;53.532;-1.478;2023-02-23T08:38:03;101058.81;;;10.45;100.00
24666;BME280;29726;53.532;-1.478;2023-02-23T08:40:47;101066.63;;;10.50;100.00
24666;BME280;29726;53.532;-1.478;2023-02-23T08:43:31;101053.69;;;10.43;100.00
24666;BME280;29726;53.532;-1.478;2023-02-23T08:46:16;101084.13;;;10.50;100.00
24666;BME280;29726;53.532;-1.478;2023-02-23T08:49:03;101105.31;;;10.60;100.00
24666;BME280;29726;53.532;-1.478;2023-02-23T08:51:48;101091.47;;;10.57;100.00
24666;BME280;29726;53.532;-1.478;2023-02-23T08:54:33;101108.72;;;10.77;100.00
24666;BME280;29726;53.532;-1.478;2023-02-23T08:57:16;101110.25;;;10.78;100.00
24666;BME280;29726;53.532;-1.478;2023-02-23T09:00:03;101129.09;;;10.86;100.00
24666;BME280;29726;53.532;-1.478;2023-02-23T09:02:49;101122.94;;;10.91;100.00
24666;BME280;29726;53.532;-1.478;2023-02-23T09:05:35;101123.13;;;10.97;100.00
24666;BME280;29726;53.532;-1.478;2023-02-23T09:08:20;101135.59;;;11.05;100.00
24666;BME280;29726;53.532;-1.478;2023-02-23T09:11:04;101128.31;;;11.07;100.00
24666;BME280;29726;53.532;-1.478;2023-02-23T09:13:48;101129.63;;;11.15;100.00
24666;BME280;29726;53.532;-1.478;2023-02-23T09:16:33;101120.47;;;11.15;100.00
24666;BME280;29726;53.532;-1.478;2023-02-23T09:19:18;101121.56;;;11.17;100.00
24666;BME280;29726;53.532;-1.478;2023-02-23T09:22:02;101128.56;;;11.22;100.00
24666;BME280;29726;53.532;-1.478;2023-02-23T09:24:46;101135.44;;;11.30;100.00
24666;BME280;29726;53.532;-1.478;2023-02-23T09:27:30;101159.25;;;11.34;100.00
24666;BME280;29726;53.532;-1.478;2023-02-23T09:30:16;101153.53;;;11.38;100.00
24666;BME280;29726;53.532;-1.478;2023-02-23T09:33:03;101145.72;;;11.33;100.00
24666;BME280;29726;53.532;-1.478;2023-02-23T09:35:47;101154.28;;;11.38;100.00
24666;BME280;29726;53.532;-1.478;2023-02-23T09:38:31;101157.28;;;11.44;100.00
24666;BME280;29726;53.532;-1.478;2023-02-23T09:44:32;101152.44;;;11.44;100.00
24666;BME280;29726;53.532;-1.478;2023-02-23T09:47:21;101164.03;;;11.55;100.00
24666;BME280;29726;53.532;-1.478;2023-02-23T09:50:16;101155.00;;;11.51;100.00
24666;BME280;29726;53.532;-1.478;2023-02-23T09:56:09;101159.94;;;11.68;100.00
24666;BME280;29726;53.532;-1.478;2023-02-23T09:58:54;101168.81;;;11.76;100.00
24666;BME280;29726;53.532;-1.478;2023-02-23T10:01:52;101163.06;;;11.79;100.00
24666;BME280;29726;53.532;-1.478;2023-02-23T10:04:46;101173.84;;;11.90;100.00
24666;BME280;29726;53.532;-1.478;2023-02-23T10:10:47;101166.13;;;12.03;100.00
24666;BME280;29726;53.532;-1.478;2023-02-23T10:13:52;101168.19;;;12.11;100.00
24666;BME280;29726;53.532;-1.478;2023-02-23T10:19:39;101175.22;;;12.25;100.00
24666;BME280;29726;53.532;-1.478;2023-02-23T10:22:27;101173.97;;;12.26;100.00
24666;BME280;29726;53.532;-1.478;2023-02-23T10:25:14;101188.28;;;12.37;100.00
24666;BME280;29726;53.532;-1.478;2023-02-23T10:28:01;101183.66;;;12.43;100.00
24666;BME280;29726;53.532;-1.478;2023-02-23T10:30:46;101185.69;;;12.51;100.00
24666;BME280;29726;53.532;-1.478;2023-02-23T10:33:34;101177.00;;;12.58;100.00
24666;BME280;29726;53.532;-1.478;2023-02-23T10:36:36;101168.59;;;12.67;100.00
24666;BME280;29726;53.532;-1.478;2023-02-23T10:39:21;101158.50;;;12.70;100.00
24666;BME280;29726;53.532;-1.478;2023-02-23T10:42:15;101165.50;;;12.83;100.00
24666;BME280;29726;53.532;-1.478;2023-02-23T10:45:01;101162.53;;;12.87;100.00
24666;BME280;29726;53.532;-1.478;2023-02-23T10:47:45;101166.59;;;13.04;100.00
24666;BME280;29726;53.532;-1.478;2023-02-23T10:50:31;101170.97;;;13.14;100.00
24666;BME280;29726;53.532;-1.478;2023-02-23T10:53:23;101167.69;;;13.24;100.00
24666;BME280;29726;53.532;-1.478;2023-02-23T10:56:14;101165.63;;;13.33;100.00
24666;BME280;29726;53.532;-1.478;2023-02-23T10:59:00;101157.84;;;13.37;100.00
24666;BME280;29726;53.532;-1.478;2023-02-23T11:01:45;101155.00;;;13.46;100.00
24666;BME280;29726;53.532;-1.478;2023-02-23T11:04:31;101157.47;;;13.62;100.00
24666;BME280;29726;53.532;-1.478;2023-02-23T11:07:24;101166.16;;;13.73;100.00
24666;BME280;29726;53.532;-1.478;2023-02-23T11:10:26;101173.28;;;13.83;100.00
24666;BME280;29726;53.532;-1.478;2023-02-23T11:13:35;101160.94;;;13.90;100.00
24666;BME280;29726;53.532;-1.478;2023-02-23T11:16:25;101168.44;;;13.93;100.00
24666;BME280;29726;53.532;-1.478;2023-02-23T11:19:23;101180.81;;;14.10;100.00
24666;BME280;29726;53.532;-1.478;2023-02-23T11:22:18;101166.59;;;14.13;100.00
24666;BME280;29726;53.532;-1.478;2023-02-23T11:25:23;101181.09;;;14.21;100.00
24666;BME280;29726;53.532;-1.478;2023-02-23T11:28:24;101187.75;;;14.32;100.00
24666;BME280;29726;53.532;-1.478;2023-02-23T11:31:22;101174.59;;;14.38;100.00
24666;BME280;29726;53.532;-1.478;2023-02-23T11:34:28;101173.78;;;14.47;100.00
24666;BME280;29726;53.532;-1.478;2023-02-23T11:40:07;101203.34;;;14.57;100.00
24666;BME280;29726;53.532;-1.478;2023-02-23T11:43:12;101198.16;;;14.64;100.00
24666;BME280;29726;53.532;-1.478;2023-02-23T11:45:59;101202.34;;;14.69;100.00
24666;BME280;29726;53.532;-1.478;2023-02-23T11:52:15;101180.88;;;14.80;100.00
24666;BME280;29726;53.532;-1.478;2023-02-23T11:55:04;101163.16;;;14.89;100.00
24666;BME280;29726;53.532;-1.478;2023-02-23T11:57:50;101160.75;;;14.96;100.00
24666;BME280;29726;53.532;-1.478;2023-02-23T12:00:36;101161.94;;;15.04;100.00
24666;BME280;29726;53.532;-1.478;2023-02-23T12:03:21;101151.84;;;15.12;100.00
24666;BME280;29726;53.532;-1.478;2023-02-23T12:06:06;101157.69;;;15.08;100.00
24666;BME280;29726;53.532;-1.478;2023-02-23T12:08:53;101176.31;;;15.20;100.00
24666;BME280;29726;53.532;-1.478;2023-02-23T12:11:48;101207.66;;;15.28;100.00
24666;BME280;29726;53.532;-1.478;2023-02-23T12:14:41;101156.31;;;15.04;100.00
24666;BME280;29726;53.532;-1.478;2023-02-23T12:17:34;101160.19;;;15.06;100.00
24666;BME280;29726;53.532;-1.478;2023-02-23T12:20:29;101198.00;;;15.29;100.00
24666;BME280;29726;53.532;-1.478;2023-02-23T12:23:23;101181.09;;;15.29;100.00
24666;BME280;29726;53.532;-1.478;2023-02-23T12:26:15;101191.28;;;15.41;100.00
24666;BME280;29726;53.532;-1.478;2023-02-23T12:29:14;101186.63;;;15.38;100.00
24666;BME280;29726;53.532;-1.478;2023-02-23T12:32:07;101189.84;;;15.45;100.00
24666;BME280;29726;53.532;-1.478;2023-02-23T12:35:11;101194.03;;;15.50;100.00
24666;BME280;29726;53.532;-1.478;2023-02-23T12:38:09;101163.25;;;15.46;100.00
24666;BME280;29726;53.532;-1.478;2023-02-23T12:41:00;101167.34;;;15.60;100.00
24666;BME280;29726;53.532;-1.478;2023-02-23T12:43:52;101170.66;;;15.58;100.00
24666;BME280;29726;53.532;-1.478;2023-02-23T12:46:43;101180.81;;;15.70;100.00
24666;BME280;29726;53.532;-1.478;2023-02-23T12:49:40;101180.13;;;15.75;100.00
24666;BME280;29726;53.532;-1.478;2023-02-23T12:52:31;101167.13;;;15.78;100.00
24666;BME280;29726;53.532;-1.478;2023-02-23T12:55:29;101118.63;;;15.54;100.00
24666;BME280;29726;53.532;-1.478;2023-02-23T13:01:34;101182.16;;;15.89;100.00
24666;BME280;29726;53.532;-1.478;2023-02-23T13:13:35;101195.47;;;15.89;98.89
24666;BME280;29726;53.532;-1.478;2023-02-23T13:19:28;101187.81;;;15.89;98.42
24666;BME280;29726;53.532;-1.478;2023-02-23T13:22:57;101171.59;;;15.84;97.84
24666;BME280;29726;53.532;-1.478;2023-02-23T13:29:06;101174.78;;;15.92;97.69
24666;BME280;29726;53.532;-1.478;2023-02-23T13:32:02;101169.44;;;15.94;98.19
24666;BME280;29726;53.532;-1.478;2023-02-23T13:35:05;101170.88;;;16.04;98.38
24666;BME280;29726;53.532;-1.478;2023-02-23T13:38:06;101170.41;;;16.05;98.10
24666;BME280;29726;53.532;-1.478;2023-02-23T13:41:11;101162.81;;;16.11;97.70
24666;BME280;29726;53.532;-1.478;2023-02-23T13:44:28;101166.75;;;16.19;98.04
24666;BME280;29726;53.532;-1.478;2023-02-23T13:50:48;101164.81;;;16.25;97.00
24666;BME280;29726;53.532;-1.478;2023-02-23T13:56:47;101164.88;;;16.31;95.82
24666;BME280;29726;53.532;-1.478;2023-02-23T13:59:43;101159.81;;;16.35;96.86
24666;BME280;29726;53.532;-1.478;2023-02-23T14:02:35;101161.69;;;16.38;96.56
24666;BME280;29726;53.532;-1.478;2023-02-23T14:05:21;101162.25;;;16.42;96.78
24666;BME280;29726;53.532;-1.478;2023-02-23T14:08:22;101161.25;;;16.45;95.37
24666;BME280;29726;53.532;-1.478;2023-02-23T14:11:47;101165.91;;;16.48;95.51
24666;BME280;29726;53.532;-1.478;2023-02-23T14:20:15;101146.19;;;16.48;94.35
24666;BME280;29726;53.532;-1.478;2023-02-23T14:29:25;101152.25;;;16.61;93.84
24666;BME280;29726;53.532;-1.478;2023-02-23T14:35:01;101146.41;;;16.64;94.73
24666;BME280;29726;53.532;-1.478;2023-02-23T14:37:55;101139.75;;;16.67;94.80
24666;BME280;29726;53.532;-1.478;2023-02-23T14:40:46;101138.50;;;16.68;94.11
24666;BME280;29726;53.532;-1.478;2023-02-23T14:43:39;101138.00;;;16.70;94.12
24666;BME280;29726;53.532;-1.478;2023-02-23T14:46:26;101130.25;;;16.65;93.70
24666;BME280;29726;53.532;-1.478;2023-02-23T14:49:18;101129.47;;;16.64;93.22
24666;BME280;29726;53.532;-1.478;2023-02-23T14:52:06;101145.41;;;16.67;92.96
24666;BME280;29726;53.532;-1.478;2023-02-23T14:54:51;101130.00;;;16.63;93.30
24666;BME280;29726;53.532;-1.478;2023-02-23T14:57:47;101126.66;;;16.64;93.32
24666;BME280;29726;53.532;-1.478;2023-02-23T15:00:40;101131.03;;;16.65;93.63
24666;BME280;29726;53.532;-1.478;2023-02-23T15:03:25;101124.34;;;16.63;93.19
24666;BME280;29726;53.532;-1.478;2023-02-23T15:06:09;101127.22;;;16.68;93.31
24666;BME280;29726;53.532;-1.478;2023-02-23T15:08:53;101122.38;;;16.69;93.07
24666;BME280;29726;53.532;-1.478;2023-02-23T15:11:37;101113.63;;;16.67;93.13
24666;BME280;29726;53.532;-1.478;2023-02-23T15:14:21;101115.19;;;16.68;92.95
24666;BME280;29726;53.532;-1.478;2023-02-23T15:17:12;101117.78;;;16.71;92.85
24666;BME280;29726;53.532;-1.478;2023-02-23T15:20:06;101118.56;;;16.72;92.28
24666;BME280;29726;53.532;-1.478;2023-02-23T15:22:53;101125.03;;;16.77;92.51
24666;BME280;29726;53.532;-1.478;2023-02-23T15:25:40;101120.44;;;16.80;92.74
24666;BME280;29726;53.532;-1.478;2023-02-23T15:28:26;101113.75;;;16.77;92.14
24666;BME280;29726;53.532;-1.478;2023-02-23T15:31:12;101109.63;;;16.73;91.84
24666;BME280;29726;53.532;-1.478;2023-02-23T15:33:56;101114.53;;;16.78;91.63
24666;BME280;29726;53.532;-1.478;2023-02-23T15:36:40;101118.06;;;16.73;91.33
24666;BME280;29726;53.532;-1.478;2023-02-23T15:39:36;101125.53;;;16.76;91.40
24666;BME280;29726;53.532;-1.478;2023-02-23T15:42:39;101113.97;;;16.74;91.36
24666;BME280;29726;53.532;-1.478;2023-02-23T15:45:38;101112.44;;;16.73;91.40
24666;BME280;29726;53.532;-1.478;2023-02-23T15:48:40;101124.00;;;16.75;91.49
24666;BME280;29726;53.532;-1.478;2023-02-23T15:54:53;101107.47;;;16.68;91.26
24666;BME280;29726;53.532;-1.478;2023-02-23T15:57:53;101114.75;;;16.74;91.00
24666;BME280;29726;53.532;-1.478;2023-02-23T16:00:40;101109.63;;;16.73;91.09
24666;BME280;29726;53.532;-1.478;2023-02-23T16:03:30;101104.44;;;16.72;91.13